createdAt,value
2023-01-07T00:02:22.508Z,19.47
2023-01-07T00:05:10.060Z,17.57
2023-01-07T00:07:56.487Z,16.63
2023-01-07T00:10:43.336Z,16.77
2023-01-07T00:13:31.447Z,15.80
2023-01-07T00:16:20.348Z,17.07
2023-01-07T00:19:08.351Z,17.03
2023-01-07T00:21:55.070Z,17.30
2023-01-07T00:24:41.620Z,20.63
2023-01-07T00:27:28.344Z,15.27
2023-01-07T00:30:16.614Z,16.57
2023-01-07T00:33:06.440Z,18.97
2023-01-07T00:36:00.534Z,17.07
2023-01-07T00:38:47.761Z,17.10
2023-01-07T00:41:34.775Z,20.20
2023-01-07T00:44:21.581Z,16.27
2023-01-07T00:47:10.928Z,18.37
2023-01-07T00:49:57.575Z,16.17
2023-01-07T00:52:44.331Z,15.70
2023-01-07T00:55:32.139Z,14.37
2023-01-07T00:58:22.857Z,15.70
2023-01-07T01:01:13.228Z,15.97
2023-01-07T01:04:01.518Z,15.70
2023-01-07T01:06:48.113Z,22.87
2023-01-07T01:09:35.101Z,17.37
2023-01-07T01:12:21.989Z,24.37
2023-01-07T01:15:11.445Z,20.77
2023-01-07T01:17:58.178Z,16.63
2023-01-07T01:20:46.173Z,14.40
2023-01-07T01:23:33.139Z,16.50
2023-01-07T01:26:19.824Z,15.97
2023-01-07T01:29:06.809Z,17.70
2023-01-07T01:31:54.983Z,18.70
2023-01-07T01:34:42.562Z,20.37
2023-01-07T01:37:30.776Z,17.93
2023-01-07T01:40:18.233Z,15.43
2023-01-07T01:43:05.591Z,17.80
2023-01-07T01:45:52.530Z,18.80
2023-01-07T01:48:43.053Z,20.43
2023-01-07T01:51:34.926Z,22.23
2023-01-07T01:54:23.508Z,21.90
2023-01-07T01:57:13.792Z,22.73
2023-01-07T02:00:01.182Z,21.17
2023-01-07T02:02:52.219Z,18.00
2023-01-07T02:05:42.780Z,19.90
2023-01-07T02:08:29.667Z,21.00
2023-01-07T02:11:33.316Z,18.10
2023-01-07T02:14:45.640Z,23.23
2023-01-07T02:17:45.672Z,15.70
2023-01-07T02:20:47.778Z,22.00
2023-01-07T02:24:23.040Z,18.20
2023-01-07T02:27:27.927Z,18.47
2023-01-07T02:30:38.118Z,18.03
2023-01-07T02:33:42.059Z,18.87
2023-01-07T02:36:44.415Z,14.53
2023-01-07T02:39:41.916Z,18.47
2023-01-07T02:42:36.498Z,17.13
2023-01-07T02:45:30.647Z,16.67
2023-01-07T02:48:20.861Z,20.00
2023-01-07T02:51:09.204Z,17.53
2023-01-07T02:53:57.375Z,20.87
2023-01-07T02:57:03.055Z,14.37
2023-01-07T03:00:08.194Z,13.33
2023-01-07T03:03:32.304Z,19.77
2023-01-07T03:06:36.028Z,19.53
2023-01-07T03:09:32.380Z,14.80
2023-01-07T03:12:25.839Z,13.90
2023-01-07T03:15:18.711Z,17.53
2023-01-07T03:18:11.743Z,14.77
2023-01-07T03:21:01.028Z,15.23
2023-01-07T03:23:53.884Z,14.13
2023-01-07T03:26:43.558Z,19.10
2023-01-07T03:29:32.314Z,15.13
2023-01-07T03:32:26.421Z,13.40
2023-01-07T03:35:13.226Z,15.37
2023-01-07T03:38:04.152Z,11.67
2023-01-07T03:40:53.571Z,14.40
2023-01-07T03:43:39.076Z,18.10
2023-01-07T03:46:26.047Z,14.37
2023-01-07T03:49:15.041Z,12.33
2023-01-07T03:52:02.017Z,13.47
2023-01-07T03:54:48.764Z,12.37
2023-01-07T03:57:38.132Z,16.13
2023-01-07T04:00:25.384Z,14.40
2023-01-07T04:03:30.883Z,17.43
2023-01-07T04:06:17.666Z,13.23
2023-01-07T04:09:04.730Z,16.47
2023-01-07T04:11:53.380Z,14.60
2023-01-07T04:14:42.302Z,15.23
2023-01-07T04:17:29.156Z,13.57
2023-01-07T04:20:15.950Z,12.70
2023-01-07T04:23:03.193Z,14.07
2023-01-07T04:25:52.249Z,12.77
2023-01-07T04:28:43.289Z,12.53
2023-01-07T04:31:31.718Z,14.07
2023-01-07T04:34:18.829Z,10.03
2023-01-07T04:37:05.758Z,16.33
2023-01-07T04:39:52.436Z,16.97
2023-01-07T04:42:39.168Z,14.43
2023-01-07T04:45:28.627Z,12.00
2023-01-07T04:48:18.343Z,15.67
2023-01-07T04:51:06.348Z,14.90
2023-01-07T04:53:53.218Z,14.40
2023-01-07T04:56:40.387Z,15.13
2023-01-07T04:59:27.401Z,18.30
2023-01-07T05:02:15.934Z,17.63
2023-01-07T05:05:04.784Z,14.80
2023-01-07T05:07:52.623Z,16.30
2023-01-07T05:10:40.492Z,18.50
2023-01-07T05:13:27.214Z,14.83
2023-01-07T05:16:13.999Z,20.10
2023-01-07T05:19:02.067Z,25.57
2023-01-07T05:21:52.717Z,23.60
2023-01-07T05:24:39.409Z,25.80
2023-01-07T05:27:26.771Z,24.57
2023-01-07T05:30:13.905Z,21.53
2023-01-07T05:33:00.456Z,22.23
2023-01-07T05:35:48.887Z,22.97
2023-01-07T05:38:37.832Z,20.63
2023-01-07T05:41:24.928Z,21.63
2023-01-07T05:44:12.012Z,20.97
2023-01-07T05:46:58.863Z,20.60
2023-01-07T05:49:45.917Z,20.13
2023-01-07T05:52:32.800Z,22.47
2023-01-07T05:55:20.971Z,20.83
2023-01-07T05:58:09.113Z,19.90
2023-01-07T06:00:56.182Z,21.93
2023-01-07T06:03:42.947Z,18.60
2023-01-07T06:06:29.752Z,18.17
2023-01-07T06:09:16.607Z,18.47
2023-01-07T06:12:04.938Z,18.37
2023-01-07T06:14:51.567Z,18.97
2023-01-07T06:17:38.386Z,18.67
2023-01-07T06:20:25.345Z,18.20
2023-01-07T06:23:11.714Z,17.93
2023-01-07T06:25:58.623Z,19.33
2023-01-07T06:28:47.034Z,21.50
2023-01-07T06:31:33.913Z,19.10
2023-01-07T06:34:20.419Z,24.67
2023-01-07T06:37:07.503Z,15.23
2023-01-07T06:39:53.837Z,15.77
2023-01-07T06:42:40.678Z,22.47
2023-01-07T06:45:29.111Z,17.70
2023-01-07T06:48:15.834Z,15.30
2023-01-07T06:51:02.518Z,16.90
2023-01-07T06:53:49.502Z,15.57
2023-01-07T06:56:36.334Z,17.80
2023-01-07T06:59:23.208Z,15.53
2023-01-07T07:02:22.095Z,17.23
2023-01-07T07:05:09.084Z,19.87
2023-01-07T07:07:56.079Z,21.50
2023-01-07T07:10:42.847Z,18.17
2023-01-07T07:13:29.641Z,19.70
2023-01-07T07:16:16.439Z,15.90
2023-01-07T07:19:04.869Z,17.70
2023-01-07T07:21:51.393Z,19.13
2023-01-07T07:24:38.143Z,16.00
2023-01-07T07:27:25.076Z,16.93
2023-01-07T07:30:13.044Z,15.53
2023-01-07T07:33:03.902Z,15.23
2023-01-07T07:35:51.722Z,16.97
2023-01-07T07:38:38.327Z,19.10
2023-01-07T07:41:25.102Z,22.33
2023-01-07T07:44:11.928Z,22.70
2023-01-07T07:46:58.964Z,17.73
2023-01-07T07:49:45.950Z,12.87
2023-01-07T07:52:33.937Z,17.67
2023-01-07T07:55:26.014Z,13.90
2023-01-07T07:58:13.512Z,14.87
2023-01-07T08:01:00.277Z,12.73
2023-01-07T08:03:47.110Z,14.43
2023-01-07T08:06:34.408Z,16.37
2023-01-07T08:09:22.543Z,15.23
2023-01-07T08:12:09.589Z,15.37
2023-01-07T08:14:56.243Z,15.23
2023-01-07T08:17:43.610Z,14.93
2023-01-07T08:20:31.543Z,11.23
2023-01-07T08:23:18.351Z,14.17
2023-01-07T08:26:06.878Z,13.93
2023-01-07T08:28:54.824Z,15.83
2023-01-07T08:31:41.779Z,10.17
2023-01-07T08:34:29.292Z,13.30
2023-01-07T08:37:16.299Z,15.37
2023-01-07T08:40:05.813Z,11.13
2023-01-07T08:42:54.020Z,12.30
2023-01-07T08:45:40.531Z,11.67
2023-01-07T08:48:27.372Z,10.17
2023-01-07T08:51:14.237Z,14.90
2023-01-07T08:54:01.068Z,10.50
2023-01-07T08:56:47.799Z,13.53
2023-01-07T08:59:36.081Z,12.87
2023-01-07T09:02:22.976Z,11.70
2023-01-07T09:05:11.088Z,12.00
2023-01-07T09:07:58.017Z,11.93
2023-01-07T09:10:44.917Z,11.53
2023-01-07T09:13:31.682Z,9.53
2023-01-07T09:16:20.188Z,9.10
2023-01-07T09:19:07.009Z,10.87
2023-01-07T09:21:54.029Z,12.60
2023-01-07T09:24:40.545Z,10.10
2023-01-07T09:27:27.975Z,9.63
2023-01-07T09:30:14.637Z,15.20
2023-01-07T09:33:02.660Z,9.17
2023-01-07T09:35:49.454Z,11.57
2023-01-07T09:38:36.625Z,10.20
2023-01-07T09:41:33.098Z,8.67
2023-01-07T09:44:28.343Z,13.80
2023-01-07T09:47:18.585Z,8.73
2023-01-07T09:50:15.185Z,10.20
2023-01-07T09:53:07.925Z,8.57
2023-01-07T09:56:11.990Z,11.23
2023-01-07T09:59:01.618Z,9.73
2023-01-07T10:01:55.612Z,9.77
2023-01-07T10:04:50.733Z,9.17
2023-01-07T10:07:43.364Z,9.53
2023-01-07T10:10:37.935Z,8.70
2023-01-07T10:13:54.665Z,7.67
2023-01-07T10:16:49.288Z,8.97
2023-01-07T10:19:46.546Z,6.97
2023-01-07T10:22:38.077Z,7.53
2023-01-07T10:25:29.779Z,8.17
2023-01-07T10:28:23.859Z,9.47
2023-01-07T10:31:18.976Z,8.20
2023-01-07T10:34:14.023Z,6.80
2023-01-07T10:37:04.167Z,7.73
2023-01-07T10:39:58.963Z,9.17
2023-01-07T10:42:54.932Z,6.57
2023-01-07T10:45:52.693Z,8.83
2023-01-07T10:49:01.220Z,10.83
2023-01-07T10:52:15.321Z,7.23
2023-01-07T10:55:30.034Z,8.33
2023-01-07T10:58:18.355Z,12.23
2023-01-07T11:01:06.231Z,7.63
2023-01-07T11:03:56.839Z,7.07
2023-01-07T11:06:48.825Z,6.17
2023-01-07T11:09:39.376Z,8.07
2023-01-07T11:12:33.926Z,6.60
2023-01-07T11:15:25.187Z,8.80
2023-01-07T11:18:17.793Z,6.60
2023-01-07T11:21:04.696Z,10.20
2023-01-07T11:23:51.648Z,8.27
2023-01-07T11:26:38.526Z,6.53
2023-01-07T11:29:27.238Z,7.47
2023-01-07T11:32:23.660Z,5.80
2023-01-07T11:35:22.743Z,5.90
2023-01-07T11:38:28.522Z,6.40
2023-01-07T11:41:24.242Z,6.03
2023-01-07T11:44:16.670Z,6.13
2023-01-07T11:47:04.802Z,4.93
2023-01-07T11:49:53.059Z,5.23
2023-01-07T11:52:39.624Z,7.47
2023-01-07T11:55:26.892Z,7.23
2023-01-07T11:58:28.970Z,5.20
2023-01-07T12:01:20.085Z,6.40
2023-01-07T12:04:15.285Z,5.60
2023-01-07T12:07:06.970Z,4.27
2023-01-07T12:09:53.753Z,5.20
2023-01-07T12:12:45.148Z,5.40
2023-01-07T12:15:34.989Z,4.20
2023-01-07T12:18:57.317Z,5.13
2023-01-07T12:21:57.334Z,4.30
2023-01-07T12:25:16.109Z,3.97
2023-01-07T12:28:12.252Z,5.83
2023-01-07T12:31:23.052Z,5.07
2023-01-07T12:34:20.702Z,3.30
2023-01-07T12:37:14.731Z,4.20
2023-01-07T12:40:19.684Z,4.27
2023-01-07T12:43:13.885Z,4.10
2023-01-07T12:46:02.582Z,3.53
2023-01-07T12:48:59.280Z,4.37
2023-01-07T12:51:51.653Z,5.17
2023-01-07T12:54:48.539Z,2.83
2023-01-07T12:57:40.069Z,3.03
2023-01-07T13:00:30.558Z,2.93
2023-01-07T13:03:29.370Z,4.67
2023-01-07T13:06:21.228Z,4.03
2023-01-07T13:09:17.611Z,3.57
2023-01-07T13:12:40.470Z,2.97
2023-01-07T13:15:33.966Z,6.17
2023-01-07T13:18:21.808Z,2.90
2023-01-07T13:21:09.960Z,3.43
2023-01-07T13:24:14.514Z,6.30
2023-01-07T13:27:14.142Z,2.20
2023-01-07T13:30:12.066Z,2.40
2023-01-07T13:33:12.108Z,2.73
2023-01-07T13:36:14.636Z,2.70
2023-01-07T13:39:26.925Z,5.47
2023-01-07T13:42:23.622Z,2.10
2023-01-07T13:45:14.789Z,2.67
2023-01-07T13:48:06.366Z,3.43
2023-01-07T13:50:59.446Z,5.13
2023-01-07T13:53:48.173Z,2.30
2023-01-07T13:56:37.573Z,3.60
2023-01-07T13:59:32.682Z,3.97
2023-01-07T14:02:22.430Z,2.00
2023-01-07T14:05:25.150Z,2.23
2023-01-07T14:08:11.852Z,2.97
2023-01-07T14:10:58.703Z,2.00
2023-01-07T14:13:56.115Z,2.27
2023-01-07T14:16:49.211Z,2.30
2023-01-07T14:19:45.228Z,3.00
2023-01-07T14:22:45.191Z,2.17
2023-01-07T14:26:00.542Z,3.80
2023-01-07T14:29:20.342Z,2.37
2023-01-07T14:32:37.072Z,1.83
2023-01-07T14:35:29.869Z,1.90
2023-01-07T14:39:07.013Z,2.50
2023-01-07T14:42:41.423Z,3.03
2023-01-07T14:45:54.447Z,2.53
2023-01-07T14:48:41.256Z,2.43
2023-01-07T14:51:46.132Z,5.07
2023-01-07T14:55:00.886Z,2.53
2023-01-07T14:58:00.948Z,3.33
2023-01-07T15:01:18.279Z,2.63
2023-01-07T15:04:34.350Z,2.70
2023-01-07T15:07:24.928Z,2.37
2023-01-07T15:10:38.658Z,2.77
2023-01-07T15:13:45.002Z,2.87
2023-01-07T15:16:35.761Z,7.07
2023-01-07T15:19:22.991Z,3.40
2023-01-07T15:22:31.079Z,2.70
2023-01-07T15:25:33.965Z,6.27
2023-01-07T15:28:31.190Z,2.93
2023-01-07T15:31:25.834Z,2.20
2023-01-07T15:34:14.149Z,3.13
2023-01-07T15:37:05.380Z,5.97
2023-01-07T15:39:56.238Z,3.93
2023-01-07T15:42:44.372Z,3.87
2023-01-07T15:45:31.362Z,3.87
2023-01-07T15:48:19.377Z,4.60
2023-01-07T15:51:16.002Z,3.60
2023-01-07T15:54:02.747Z,5.00
2023-01-07T15:56:50.908Z,3.20
2023-01-07T15:59:43.205Z,4.07
2023-01-07T16:02:34.562Z,3.27
2023-01-07T16:05:25.338Z,4.30
2023-01-07T16:08:18.572Z,6.77
2023-01-07T16:11:09.054Z,5.13
2023-01-07T16:13:58.155Z,5.93
2023-01-07T16:16:45.219Z,5.50
2023-01-07T16:19:31.799Z,4.73
2023-01-07T16:22:23.785Z,5.60
2023-01-07T16:25:15.270Z,10.03
2023-01-07T16:28:03.184Z,5.23
2023-01-07T16:30:52.705Z,6.83
2023-01-07T16:33:40.885Z,6.90
2023-01-07T16:36:31.911Z,6.40
2023-01-07T16:39:23.613Z,5.83
2023-01-07T16:42:23.545Z,5.93
2023-01-07T16:45:24.665Z,5.63
2023-01-07T16:48:19.762Z,6.20
2023-01-07T16:51:27.170Z,5.40
2023-01-07T16:54:37.309Z,5.43
2023-01-07T16:57:44.990Z,5.03
2023-01-07T17:00:31.508Z,6.97
2023-01-07T17:03:18.418Z,4.90
2023-01-07T17:06:07.522Z,5.53
2023-01-07T17:08:56.700Z,5.57
2023-01-07T17:11:44.667Z,5.37
2023-01-07T17:14:50.972Z,5.33
2023-01-07T17:17:37.876Z,8.77
2023-01-07T17:20:24.768Z,5.53
2023-01-07T17:23:32.874Z,6.20
2023-01-07T17:26:23.491Z,4.43
2023-01-07T17:29:13.853Z,4.27
2023-01-07T17:32:00.660Z,4.87
2023-01-07T17:34:47.394Z,4.57
2023-01-07T17:37:37.050Z,4.53
2023-01-07T17:40:23.738Z,7.13
2023-01-07T17:43:34.685Z,4.60
2023-01-07T17:46:24.124Z,6.63
2023-01-07T17:49:11.600Z,3.80
2023-01-07T17:51:58.301Z,6.17
2023-01-07T17:54:45.817Z,4.97
2023-01-07T17:57:32.452Z,4.17
2023-01-07T18:00:21.351Z,4.83
2023-01-07T18:03:09.256Z,3.37
2023-01-07T18:06:11.910Z,3.57
2023-01-07T18:09:02.417Z,4.93
2023-01-07T18:12:08.662Z,4.70
2023-01-07T18:14:58.718Z,6.83
2023-01-07T18:17:47.330Z,5.53
2023-01-07T18:20:35.543Z,4.53
2023-01-07T18:23:22.800Z,5.23
2023-01-07T18:26:09.883Z,5.87
2023-01-07T18:28:57.170Z,7.27
2023-01-07T18:31:45.879Z,5.67
2023-01-07T18:34:32.389Z,6.67
2023-01-07T18:37:20.588Z,9.40
2023-01-07T18:40:09.375Z,6.83
2023-01-07T18:42:56.754Z,6.07
2023-01-07T18:45:47.136Z,10.83
2023-01-07T18:48:36.026Z,7.40
2023-01-07T18:51:23.151Z,8.27
2023-01-07T18:54:11.242Z,8.67
2023-01-07T18:56:58.177Z,5.90
2023-01-07T18:59:45.367Z,9.37
2023-01-07T19:02:32.119Z,5.90
2023-01-07T19:05:19.004Z,6.87
2023-01-07T19:08:06.459Z,5.17
2023-01-07T19:10:54.352Z,5.73
2023-01-07T19:13:41.321Z,6.10
2023-01-07T19:16:28.220Z,5.70
2023-01-07T19:19:15.197Z,7.30
2023-01-07T19:22:02.147Z,6.27
2023-01-07T19:24:48.946Z,7.30
2023-01-07T19:27:37.221Z,7.23
2023-01-07T19:30:25.271Z,7.43
2023-01-07T19:33:12.159Z,5.67
2023-01-07T19:36:03.995Z,8.10
2023-01-07T19:38:52.997Z,5.60
2023-01-07T19:41:39.567Z,4.97
2023-01-07T19:44:27.819Z,4.33
2023-01-07T19:47:17.290Z,7.57
2023-01-07T19:50:04.080Z,5.70
2023-01-07T19:52:50.830Z,5.70
2023-01-07T19:55:37.524Z,3.67
2023-01-07T19:58:24.559Z,4.17
2023-01-07T20:01:15.740Z,5.50
2023-01-07T20:04:02.542Z,6.03
2023-01-07T20:06:50.598Z,7.73
2023-01-07T20:09:37.093Z,4.63
2023-01-07T20:12:23.896Z,6.43
2023-01-07T20:15:11.338Z,6.07
2023-01-07T20:17:59.295Z,5.23
2023-01-07T20:20:46.293Z,10.63
2023-01-07T20:23:35.200Z,7.23
2023-01-07T20:26:24.148Z,5.73
2023-01-07T20:29:11.080Z,5.80
2023-01-07T20:31:58.022Z,6.07
2023-01-07T20:34:46.554Z,6.57
2023-01-07T20:37:33.375Z,5.27
2023-01-07T20:40:20.184Z,5.87
2023-01-07T20:43:07.303Z,6.20
2023-01-07T20:45:59.653Z,5.13
2023-01-07T20:48:46.278Z,4.53
2023-01-07T20:51:34.556Z,6.97
2023-01-07T20:54:21.217Z,7.00
2023-01-07T20:57:07.836Z,7.53
2023-01-07T20:59:54.765Z,8.80
2023-01-07T21:02:41.743Z,5.77
2023-01-07T21:05:28.495Z,7.83
2023-01-07T21:08:17.600Z,9.47
2023-01-07T21:11:04.640Z,9.83
2023-01-07T21:13:52.295Z,7.73
2023-01-07T21:16:39.194Z,7.87
2023-01-07T21:19:25.901Z,4.90
2023-01-07T21:22:12.769Z,7.73
2023-01-07T21:25:00.841Z,6.43
2023-01-07T21:27:48.724Z,5.90
2023-01-07T21:30:36.584Z,7.90
2023-01-07T21:33:23.177Z,5.70
2023-01-07T21:36:10.577Z,4.93
2023-01-07T21:39:00.466Z,5.20
2023-01-07T21:41:48.587Z,6.70
2023-01-07T21:44:35.363Z,4.73
2023-01-07T21:47:22.100Z,4.27
2023-01-07T21:50:09.742Z,4.43
2023-01-07T21:52:56.436Z,4.53
2023-01-07T21:55:43.290Z,4.70
2023-01-07T21:58:31.273Z,4.70
2023-01-07T22:01:19.454Z,5.23
2023-01-07T22:04:06.227Z,5.30
2023-01-07T22:06:52.995Z,4.77
2023-01-07T22:09:39.880Z,7.50
2023-01-07T22:12:26.838Z,4.53
2023-01-07T22:15:15.076Z,4.47
2023-01-07T22:18:01.927Z,6.37
2023-01-07T22:20:58.229Z,5.73
2023-01-07T22:23:46.474Z,6.00
2023-01-07T22:26:33.468Z,4.37
2023-01-07T22:29:20.309Z,4.77
2023-01-07T22:32:08.544Z,4.33
2023-01-07T22:34:55.369Z,3.87
2023-01-07T22:37:50.304Z,7.40
2023-01-07T22:40:38.157Z,4.63
2023-01-07T22:43:26.661Z,5.47
2023-01-07T22:46:18.191Z,8.10
2023-01-07T22:49:09.675Z,5.03
2023-01-07T22:52:00.887Z,4.80
2023-01-07T22:54:49.844Z,4.33
2023-01-07T22:57:37.555Z,6.40
2023-01-07T23:00:40.971Z,5.00
2023-01-07T23:03:27.436Z,3.77
2023-01-07T23:06:16.442Z,4.00
2023-01-07T23:09:03.331Z,5.13
2023-01-07T23:11:51.177Z,5.90
2023-01-07T23:14:38.492Z,4.33
2023-01-07T23:17:25.040Z,4.97
2023-01-07T23:20:12.597Z,6.37
2023-01-07T23:23:01.283Z,5.83
2023-01-07T23:25:49.502Z,4.70
2023-01-07T23:28:36.254Z,4.60
2023-01-07T23:31:23.277Z,7.60
2023-01-07T23:34:10.388Z,5.53
2023-01-07T23:36:56.772Z,6.70
2023-01-07T23:39:45.046Z,4.20
2023-01-07T23:42:31.851Z,4.70
2023-01-07T23:45:20.191Z,8.87
2023-01-07T23:48:08.555Z,4.53
2023-01-07T23:50:55.271Z,5.70
2023-01-07T23:53:42.884Z,13.30
2023-01-07T23:56:30.829Z,4.57
2023-01-07T23:59:18.653Z,7.13
